createdAt,value
2019-02-17T00:00:45.967Z,17.00
2019-02-17T00:03:15.564Z,17.50
2019-02-17T00:05:45.199Z,16.97
2019-02-17T00:08:15.102Z,17.70
2019-02-17T00:10:44.703Z,17.87
2019-02-17T00:13:33.563Z,18.80
2019-02-17T00:16:03.243Z,18.03
2019-02-17T00:18:32.940Z,17.93
2019-02-17T00:21:02.555Z,18.13
2019-02-17T00:23:33.242Z,17.70
2019-02-17T00:26:02.879Z,16.50
2019-02-17T00:28:32.458Z,17.83
2019-02-17T00:31:02.055Z,17.27
2019-02-17T00:33:31.659Z,17.17
2019-02-17T00:36:01.324Z,18.80
2019-02-17T00:38:30.919Z,16.60
2019-02-17T00:41:00.538Z,16.67
2019-02-17T00:43:30.140Z,17.60
2019-02-17T00:45:59.755Z,16.83
2019-02-17T00:48:29.372Z,17.70
2019-02-17T00:50:58.990Z,17.80
2019-02-17T00:53:30.085Z,16.93
2019-02-17T00:55:59.696Z,16.70
2019-02-17T00:58:29.631Z,17.67
2019-02-17T01:00:59.256Z,16.00
2019-02-17T01:03:28.884Z,15.97
2019-02-17T01:05:58.563Z,16.87
2019-02-17T01:08:28.418Z,16.77
2019-02-17T01:10:58.024Z,18.17
2019-02-17T01:13:27.640Z,15.70
2019-02-17T01:15:57.247Z,16.37
2019-02-17T01:18:26.855Z,15.90
2019-02-17T01:20:56.455Z,16.20
2019-02-17T01:23:26.052Z,16.80
2019-02-17T01:25:55.667Z,16.27
2019-02-17T01:28:25.279Z,15.30
2019-02-17T01:30:55.872Z,16.40
2019-02-17T01:33:25.494Z,15.93
2019-02-17T01:35:55.100Z,15.03
2019-02-17T01:38:24.711Z,15.20
2019-02-17T01:40:54.313Z,17.07
2019-02-17T01:43:23.934Z,16.20
2019-02-17T01:45:53.579Z,15.53
2019-02-17T01:48:23.186Z,16.63
2019-02-17T01:50:52.779Z,19.20
2019-02-17T01:53:22.372Z,15.80
2019-02-17T01:55:51.974Z,16.00
2019-02-17T01:58:21.590Z,14.30
2019-02-17T02:00:51.503Z,14.90
2019-02-17T02:03:21.102Z,15.57
2019-02-17T02:05:50.696Z,13.13
2019-02-17T02:08:20.324Z,13.90
2019-02-17T02:10:49.908Z,16.10
2019-02-17T02:13:19.538Z,14.97
2019-02-17T02:15:50.095Z,16.27
2019-02-17T02:18:20.067Z,15.33
2019-02-17T02:20:49.667Z,15.03
2019-02-17T02:23:19.287Z,14.90
2019-02-17T02:25:49.974Z,17.80
2019-02-17T02:28:19.591Z,17.23
2019-02-17T02:30:49.209Z,18.10
2019-02-17T02:33:18.815Z,18.00
2019-02-17T02:35:48.387Z,19.17
2019-02-17T02:38:18.077Z,19.33
2019-02-17T02:40:47.755Z,19.90
2019-02-17T02:43:17.346Z,20.20
2019-02-17T02:45:46.961Z,21.67
2019-02-17T02:48:16.595Z,19.50
2019-02-17T02:50:46.183Z,19.53
2019-02-17T02:53:15.801Z,19.70
2019-02-17T02:55:45.408Z,21.00
2019-02-17T02:58:16.647Z,20.33
2019-02-17T03:00:46.375Z,20.40
2019-02-17T03:03:16.272Z,20.83
2019-02-17T03:06:00.449Z,20.73
2019-02-17T03:08:30.036Z,20.30
2019-02-17T03:10:59.959Z,21.07
2019-02-17T03:13:29.573Z,20.57
2019-02-17T03:15:59.221Z,19.80
2019-02-17T03:18:28.836Z,22.00
2019-02-17T03:20:58.696Z,20.80
2019-02-17T03:23:28.292Z,20.60
2019-02-17T03:25:57.889Z,22.80
2019-02-17T03:28:27.499Z,20.43
2019-02-17T03:30:57.128Z,20.63
2019-02-17T03:33:26.721Z,19.23
2019-02-17T03:35:56.320Z,18.73
2019-02-17T03:38:25.930Z,21.30
2019-02-17T03:40:55.868Z,21.67
2019-02-17T03:43:25.457Z,21.07
2019-02-17T03:45:55.403Z,19.77
2019-02-17T03:48:24.983Z,20.73
2019-02-17T03:50:54.583Z,21.67
2019-02-17T03:53:24.183Z,20.87
2019-02-17T03:55:53.799Z,20.37
2019-02-17T03:58:23.427Z,21.00
2019-02-17T04:00:53.016Z,19.87
2019-02-17T04:03:22.615Z,19.90
2019-02-17T04:05:52.479Z,20.33
2019-02-17T04:08:22.085Z,21.23
2019-02-17T04:10:51.692Z,19.40
2019-02-17T04:13:21.614Z,19.23
2019-02-17T04:15:51.192Z,19.40
2019-02-17T04:18:20.783Z,18.80
2019-02-17T04:20:50.375Z,18.70
2019-02-17T04:23:30.466Z,18.70
2019-02-17T04:25:54.359Z,19.20
2019-02-17T04:28:23.959Z,20.97
2019-02-17T04:30:53.876Z,20.70
2019-02-17T04:33:23.476Z,18.93
2019-02-17T04:35:53.060Z,20.53
2019-02-17T04:38:23.627Z,19.83
2019-02-17T04:40:53.216Z,21.63
2019-02-17T04:43:22.830Z,21.60
2019-02-17T04:45:52.428Z,21.90
2019-02-17T04:48:22.020Z,22.53
2019-02-17T04:50:51.619Z,23.17
2019-02-17T04:53:21.190Z,24.67
2019-02-17T04:55:50.789Z,22.30
2019-02-17T04:58:20.401Z,24.20
2019-02-17T05:00:50.220Z,24.53
2019-02-17T05:03:19.963Z,25.30
2019-02-17T05:05:49.555Z,24.90
2019-02-17T05:08:19.144Z,24.57
2019-02-17T05:10:48.730Z,23.60
2019-02-17T05:13:18.592Z,26.17
2019-02-17T05:15:48.194Z,24.60
2019-02-17T05:18:17.782Z,25.70
2019-02-17T05:20:47.384Z,24.93
2019-02-17T05:23:16.969Z,25.33
2019-02-17T05:25:46.575Z,25.37
2019-02-17T05:28:16.176Z,25.90
2019-02-17T05:30:52.855Z,26.07
2019-02-17T05:33:17.139Z,25.33
2019-02-17T05:35:46.722Z,26.23
2019-02-17T05:38:16.327Z,23.80
2019-02-17T05:40:46.078Z,23.30
2019-02-17T05:43:15.944Z,22.67
2019-02-17T05:45:45.536Z,22.37
2019-02-17T05:48:15.141Z,22.87
2019-02-17T05:50:44.738Z,22.13
2019-02-17T05:53:14.319Z,22.60
2019-02-17T05:55:43.898Z,22.07
2019-02-17T05:58:13.551Z,23.60
2019-02-17T06:00:43.487Z,22.80
2019-02-17T06:03:13.391Z,21.97
2019-02-17T06:05:42.967Z,23.03
2019-02-17T06:08:12.591Z,22.17
2019-02-17T06:10:41.744Z,24.43
2019-02-17T06:13:10.821Z,23.07
2019-02-17T06:15:39.924Z,22.80
2019-02-17T06:18:09.067Z,22.70
2019-02-17T06:20:38.151Z,24.60
2019-02-17T06:23:07.230Z,23.80
2019-02-17T06:25:36.723Z,23.90
2019-02-17T06:28:06.313Z,22.47
2019-02-17T06:30:35.912Z,24.97
2019-02-17T06:33:05.483Z,23.70
2019-02-17T06:35:35.119Z,24.60
2019-02-17T06:38:04.739Z,24.87
2019-02-17T06:40:34.323Z,24.97
2019-02-17T06:43:04.187Z,24.17
2019-02-17T06:45:33.779Z,25.00
2019-02-17T06:48:03.361Z,25.57
2019-02-17T06:50:33.023Z,24.00
2019-02-17T06:53:02.966Z,22.67
2019-02-17T06:56:09.029Z,25.37
2019-02-17T06:58:38.203Z,26.87
2019-02-17T07:01:07.811Z,24.30
2019-02-17T07:03:37.402Z,26.20
2019-02-17T07:06:12.955Z,25.87
2019-02-17T07:08:42.568Z,26.43
2019-02-17T07:11:12.159Z,24.77
2019-02-17T07:13:41.951Z,24.43
2019-02-17T07:16:11.553Z,26.40
2019-02-17T07:18:41.133Z,25.90
2019-02-17T07:21:10.715Z,27.53
2019-02-17T07:23:40.307Z,25.63
2019-02-17T07:26:09.880Z,25.97
2019-02-17T07:28:39.483Z,26.20
2019-02-17T07:31:09.072Z,25.47
2019-02-17T07:33:38.675Z,26.77
2019-02-17T07:36:08.251Z,25.13
2019-02-17T07:38:37.908Z,26.63
2019-02-17T07:41:07.807Z,25.37
2019-02-17T07:43:37.395Z,25.60
2019-02-17T07:46:07.060Z,25.50
2019-02-17T07:48:36.644Z,26.60
2019-02-17T07:51:06.218Z,25.80
2019-02-17T07:53:35.819Z,25.50
2019-02-17T07:56:05.399Z,26.60
2019-02-17T07:58:35.019Z,26.77
2019-02-17T08:01:04.684Z,25.50
2019-02-17T08:03:34.275Z,26.30
2019-02-17T08:06:03.933Z,26.53
2019-02-17T08:08:33.539Z,27.77
2019-02-17T08:11:04.294Z,27.90
2019-02-17T08:13:35.059Z,25.93
2019-02-17T08:16:04.638Z,28.00
2019-02-17T08:18:34.231Z,27.40
2019-02-17T08:21:03.813Z,27.80
2019-02-17T08:23:33.414Z,25.80
2019-02-17T08:26:03.000Z,26.93
2019-02-17T08:28:32.584Z,26.17
2019-02-17T08:31:02.167Z,27.83
2019-02-17T08:33:31.795Z,28.53
2019-02-17T08:36:01.380Z,27.10
2019-02-17T08:38:31.001Z,28.47
2019-02-17T08:41:00.902Z,28.47
2019-02-17T08:43:30.631Z,27.27
2019-02-17T08:46:00.226Z,28.40
2019-02-17T08:48:29.898Z,26.73
2019-02-17T08:50:59.508Z,25.77
2019-02-17T08:53:29.109Z,28.33
2019-02-17T08:55:59.506Z,26.80
2019-02-17T08:58:29.127Z,27.73
2019-02-17T09:01:00.102Z,26.87
2019-02-17T09:03:29.703Z,25.97
2019-02-17T09:05:59.295Z,27.10
2019-02-17T09:08:28.919Z,26.10
2019-02-17T09:10:58.535Z,24.83
2019-02-17T09:13:28.140Z,26.87
2019-02-17T09:15:57.722Z,27.10
2019-02-17T09:18:27.324Z,27.30
2019-02-17T09:20:56.923Z,26.50
2019-02-17T09:23:26.519Z,26.13
2019-02-17T09:25:56.139Z,27.10
2019-02-17T09:28:25.744Z,26.40
2019-02-17T09:30:55.323Z,28.77
2019-02-17T09:33:24.998Z,27.50
2019-02-17T09:35:54.584Z,27.30
2019-02-17T09:38:24.162Z,29.33
2019-02-17T09:40:54.032Z,27.07
2019-02-17T09:43:23.675Z,28.17
2019-02-17T09:45:53.259Z,25.00
2019-02-17T09:48:22.861Z,25.20
2019-02-17T09:50:52.743Z,26.97
2019-02-17T09:53:22.595Z,27.70
2019-02-17T09:55:52.366Z,26.00
2019-02-17T09:58:21.996Z,28.00
2019-02-17T10:00:51.586Z,27.73
2019-02-17T10:03:21.582Z,27.27
2019-02-17T10:05:51.247Z,27.20
2019-02-17T10:08:20.989Z,28.37
2019-02-17T10:10:50.657Z,29.90
2019-02-17T10:13:20.265Z,29.67
2019-02-17T10:15:49.946Z,28.10
2019-02-17T10:18:19.910Z,27.53
2019-02-17T10:20:49.483Z,30.50
2019-02-17T10:23:19.162Z,25.60
2019-02-17T10:25:48.733Z,25.73
2019-02-17T10:28:18.331Z,25.50
2019-02-17T10:30:47.994Z,25.67
2019-02-17T10:33:18.022Z,26.23
2019-02-17T10:35:47.620Z,25.30
2019-02-17T10:38:17.198Z,25.60
2019-02-17T10:40:47.015Z,25.00
2019-02-17T10:43:16.757Z,26.47
2019-02-17T10:45:46.375Z,24.57
2019-02-17T10:48:16.905Z,25.53
2019-02-17T10:50:46.497Z,25.43
2019-02-17T10:53:16.087Z,25.47
2019-02-17T10:55:45.779Z,26.77
2019-02-17T10:58:15.370Z,25.60
2019-02-17T11:00:44.993Z,26.17
2019-02-17T11:03:14.587Z,27.97
2019-02-17T11:05:44.212Z,26.17
2019-02-17T11:08:13.787Z,25.23
2019-02-17T11:10:42.979Z,26.13
2019-02-17T11:13:12.381Z,27.87
2019-02-17T11:15:42.329Z,25.83
2019-02-17T11:18:11.531Z,29.30
2019-02-17T11:20:40.675Z,27.83
2019-02-17T11:23:09.794Z,27.40
2019-02-17T11:25:38.931Z,25.40
2019-02-17T11:28:08.046Z,26.87
2019-02-17T11:30:37.539Z,26.30
2019-02-17T11:33:06.669Z,26.60
2019-02-17T11:35:35.798Z,28.03
2019-02-17T11:38:04.925Z,28.73
2019-02-17T11:40:34.061Z,25.57
2019-02-17T11:43:03.200Z,24.90
2019-02-17T11:45:32.330Z,25.40
2019-02-17T11:48:01.451Z,24.33
2019-02-17T11:50:30.574Z,24.83
2019-02-17T11:52:59.999Z,24.63
2019-02-17T11:55:29.131Z,25.53
2019-02-17T11:57:58.242Z,23.10
2019-02-17T12:00:27.378Z,24.80
2019-02-17T12:02:56.498Z,23.30
2019-02-17T12:05:25.627Z,26.27
2019-02-17T12:07:54.755Z,23.77
2019-02-17T12:10:23.835Z,25.47
2019-02-17T12:12:52.889Z,23.50
2019-02-17T12:15:22.392Z,24.50
2019-02-17T12:17:51.976Z,25.07
2019-02-17T12:20:50.789Z,24.27
2019-02-17T12:23:24.700Z,23.63
2019-02-17T12:25:59.164Z,24.70
2019-02-17T12:28:51.898Z,26.10
2019-02-17T12:31:25.175Z,23.80
2019-02-17T12:33:54.773Z,25.63
2019-02-17T12:36:24.371Z,23.13
2019-02-17T12:38:53.963Z,25.53
2019-02-17T12:41:23.223Z,23.60
2019-02-17T12:43:52.299Z,24.17
2019-02-17T12:46:21.382Z,24.60
2019-02-17T12:48:50.476Z,24.43
2019-02-17T12:51:19.560Z,22.93
2019-02-17T12:53:49.695Z,23.17
2019-02-17T12:56:18.789Z,23.10
2019-02-17T12:58:47.866Z,24.30
2019-02-17T13:01:16.971Z,23.27
2019-02-17T13:03:46.046Z,24.00
2019-02-17T13:06:15.125Z,23.50
2019-02-17T13:08:44.219Z,22.60
2019-02-17T13:11:13.333Z,22.80
2019-02-17T13:13:42.419Z,23.57
2019-02-17T13:16:11.856Z,23.93
2019-02-17T13:18:40.967Z,23.67
2019-02-17T13:21:10.110Z,24.10
2019-02-17T13:23:39.222Z,32.07
2019-02-17T13:26:08.397Z,26.67
2019-02-17T13:28:37.519Z,23.80
2019-02-17T13:31:06.667Z,24.00
2019-02-17T13:33:39.106Z,23.40
2019-02-17T13:36:07.007Z,23.07
2019-02-17T13:38:36.130Z,22.20
2019-02-17T13:41:05.254Z,21.27
2019-02-17T13:43:34.346Z,21.50
2019-02-17T13:46:03.437Z,22.77
2019-02-17T13:48:32.515Z,20.40
2019-02-17T13:51:01.826Z,22.33
2019-02-17T13:53:30.962Z,20.50
2019-02-17T13:56:00.090Z,21.63
2019-02-17T13:58:29.303Z,22.30
2019-02-17T14:00:58.442Z,23.10
2019-02-17T14:03:27.573Z,21.83
2019-02-17T14:05:56.707Z,21.30
2019-02-17T14:08:25.823Z,21.20
2019-02-17T14:10:54.956Z,20.30
2019-02-17T14:13:24.098Z,20.87
2019-02-17T14:15:53.231Z,21.43
2019-02-17T14:18:23.408Z,20.67
2019-02-17T14:20:52.553Z,20.60
2019-02-17T14:23:21.916Z,20.77
2019-02-17T14:25:51.035Z,20.90
2019-02-17T14:28:20.150Z,20.50
2019-02-17T14:30:49.295Z,20.40
2019-02-17T14:33:18.430Z,22.57
2019-02-17T14:35:47.559Z,23.17
2019-02-17T14:38:16.683Z,20.87
2019-02-17T14:40:45.823Z,18.67
2019-02-17T14:43:15.911Z,19.67
2019-02-17T14:45:45.051Z,18.63
2019-02-17T14:48:14.167Z,19.33
2019-02-17T14:50:43.311Z,20.17
2019-02-17T14:53:12.441Z,19.00
2019-02-17T14:55:41.663Z,19.90
2019-02-17T14:58:10.718Z,18.83
2019-02-17T15:00:40.103Z,17.77
2019-02-17T15:03:09.167Z,18.90
2019-02-17T15:05:38.279Z,18.20
2019-02-17T15:08:07.362Z,19.20
2019-02-17T15:10:36.421Z,18.83
2019-02-17T15:13:05.495Z,17.63
2019-02-17T15:15:34.563Z,18.73
2019-02-17T15:18:03.651Z,18.87
2019-02-17T15:20:32.711Z,17.17
2019-02-17T15:23:01.802Z,18.17
2019-02-17T15:25:30.867Z,16.77
2019-02-17T15:27:59.959Z,17.10
2019-02-17T15:30:29.023Z,16.93
2019-02-17T15:33:03.951Z,16.87
2019-02-17T15:35:28.893Z,18.17
2019-02-17T15:37:58.007Z,18.30
2019-02-17T15:40:27.087Z,15.97
2019-02-17T15:42:56.162Z,16.40
2019-02-17T15:45:25.611Z,17.37
2019-02-17T15:47:54.716Z,17.30
2019-02-17T15:50:23.802Z,17.23
2019-02-17T15:52:52.934Z,16.70
2019-02-17T15:55:22.000Z,17.83
2019-02-17T15:57:51.087Z,16.43
2019-02-17T16:00:20.200Z,17.77
2019-02-17T16:02:49.530Z,15.60
2019-02-17T16:05:18.597Z,16.80
2019-02-17T16:07:47.674Z,16.13
2019-02-17T16:10:16.758Z,16.07
2019-02-17T16:12:46.019Z,16.10
2019-02-17T16:15:15.375Z,16.87
2019-02-17T16:17:44.463Z,16.47
2019-02-17T16:20:13.648Z,17.37
2019-02-17T16:22:42.727Z,16.00
2019-02-17T16:25:11.802Z,17.00
2019-02-17T16:27:40.886Z,15.30
2019-02-17T16:30:11.541Z,18.87
2019-02-17T16:32:40.628Z,16.30
2019-02-17T16:35:09.717Z,14.80
2019-02-17T16:37:38.812Z,16.83
2019-02-17T16:40:09.807Z,15.20
2019-02-17T16:42:38.907Z,16.70
2019-02-17T16:45:08.799Z,17.60
2019-02-17T16:47:37.875Z,15.87
2019-02-17T16:50:08.161Z,16.63
2019-02-17T16:52:37.257Z,16.50
2019-02-17T16:55:07.119Z,17.43
2019-02-17T16:57:37.247Z,17.33
2019-02-17T17:00:07.535Z,16.50
2019-02-17T17:02:36.682Z,15.90
2019-02-17T17:05:06.167Z,17.50
2019-02-17T17:07:35.531Z,16.93
2019-02-17T17:10:04.924Z,61.20
2019-02-17T17:12:35.145Z,18.50
2019-02-17T17:15:04.412Z,17.77
2019-02-17T17:17:33.569Z,16.20
2019-02-17T17:20:02.665Z,18.13
2019-02-17T17:22:32.248Z,18.30
2019-02-17T17:25:01.325Z,18.27
2019-02-17T17:27:30.558Z,18.87
2019-02-17T17:29:59.651Z,18.30
2019-02-17T17:32:28.738Z,19.43
2019-02-17T17:34:59.220Z,19.97
2019-02-17T17:37:28.579Z,18.90
2019-02-17T17:39:57.925Z,21.00
2019-02-17T17:42:26.992Z,20.33
2019-02-17T17:44:56.076Z,21.00
2019-02-17T17:47:25.157Z,19.77
2019-02-17T17:49:54.218Z,19.47
2019-02-17T17:52:23.323Z,20.53
2019-02-17T17:54:52.390Z,21.60
2019-02-17T17:57:21.475Z,20.10
2019-02-17T17:59:50.544Z,19.63
2019-02-17T18:02:19.635Z,20.23
2019-02-17T18:04:48.720Z,20.33
2019-02-17T18:07:17.808Z,19.63
2019-02-17T18:09:46.881Z,20.93
2019-02-17T18:12:15.956Z,21.73
2019-02-17T18:14:45.292Z,23.93
2019-02-17T18:17:14.707Z,24.33
2019-02-17T18:19:43.779Z,23.13
2019-02-17T18:22:12.866Z,20.90
2019-02-17T18:24:41.931Z,22.20
2019-02-17T18:27:11.017Z,22.77
2019-02-17T18:29:40.099Z,21.77
2019-02-17T18:32:09.184Z,22.07
2019-02-17T18:34:38.387Z,23.20
2019-02-17T18:37:07.971Z,21.90
2019-02-17T18:39:37.067Z,25.13
2019-02-17T18:42:06.142Z,24.37
2019-02-17T18:44:35.235Z,21.57
2019-02-17T18:47:04.321Z,22.07
2019-02-17T18:49:33.411Z,22.43
2019-02-17T18:52:02.479Z,22.50
2019-02-17T18:54:31.719Z,23.20
2019-02-17T18:57:08.002Z,22.20
2019-02-17T18:59:31.568Z,21.17
2019-02-17T19:02:00.649Z,20.70
2019-02-17T19:04:29.727Z,21.73
2019-02-17T19:06:58.803Z,21.90
2019-02-17T19:09:27.888Z,21.30
2019-02-17T19:11:56.959Z,20.93
2019-02-17T19:14:26.068Z,22.33
2019-02-17T19:16:55.139Z,21.20
2019-02-17T19:19:24.322Z,21.90
2019-02-17T19:21:53.390Z,21.70
2019-02-17T19:24:22.518Z,22.17
2019-02-17T19:26:51.595Z,20.73
2019-02-17T19:29:20.679Z,21.53
2019-02-17T19:31:49.748Z,22.47
2019-02-17T19:34:19.123Z,21.23
2019-02-17T19:36:48.183Z,20.00
2019-02-17T19:39:17.255Z,23.10
2019-02-17T19:41:46.591Z,21.63
2019-02-17T19:44:15.679Z,22.03
2019-02-17T19:46:44.973Z,21.60
2019-02-17T19:49:14.136Z,21.00
2019-02-17T19:51:43.208Z,20.73
2019-02-17T19:54:12.288Z,20.27
2019-02-17T19:56:41.347Z,20.40
2019-02-17T19:59:10.443Z,22.17
2019-02-17T20:01:39.534Z,20.43
2019-02-17T20:04:27.963Z,20.47
2019-02-17T20:06:57.311Z,23.30
2019-02-17T20:09:26.390Z,20.03
2019-02-17T20:11:55.467Z,20.33
2019-02-17T20:14:24.536Z,20.93
2019-02-17T20:16:53.607Z,20.60
2019-02-17T20:19:22.709Z,21.53
2019-02-17T20:21:51.823Z,20.60
2019-02-17T20:24:20.953Z,21.70
2019-02-17T20:26:50.018Z,20.90
2019-02-17T20:29:19.100Z,20.33
2019-02-17T20:31:48.159Z,19.90
2019-02-17T20:34:17.242Z,20.00
2019-02-17T20:36:46.302Z,21.10
2019-02-17T20:39:15.467Z,20.37
2019-02-17T20:41:44.584Z,20.17
2019-02-17T20:44:13.704Z,20.07
2019-02-17T20:46:42.791Z,20.13
2019-02-17T20:49:11.903Z,20.77
2019-02-17T20:51:40.999Z,20.57
2019-02-17T20:54:10.141Z,19.70
2019-02-17T20:56:39.211Z,20.50
2019-02-17T20:59:08.312Z,20.23
2019-02-17T21:01:37.423Z,21.60
2019-02-17T21:04:06.539Z,20.97
2019-02-17T21:06:35.643Z,21.63
2019-02-17T21:09:05.471Z,22.00
2019-02-17T21:11:36.179Z,21.17
2019-02-17T21:14:05.284Z,23.60
2019-02-17T21:16:34.383Z,24.20
2019-02-17T21:19:03.571Z,20.77
2019-02-17T21:21:32.647Z,20.70
2019-02-17T21:24:01.739Z,20.30
2019-02-17T21:26:30.822Z,20.43
2019-02-17T21:28:59.958Z,20.60
2019-02-17T21:31:29.079Z,20.60
2019-02-17T21:33:58.222Z,20.80
2019-02-17T21:36:27.344Z,21.87
2019-02-17T21:38:58.668Z,21.37
2019-02-17T21:41:27.314Z,21.37
2019-02-17T21:43:56.418Z,20.70
2019-02-17T21:46:25.588Z,21.33
2019-02-17T21:48:54.698Z,21.70
2019-02-17T21:51:23.780Z,21.57
2019-02-17T21:53:52.846Z,21.33
2019-02-17T21:56:21.931Z,20.90
2019-02-17T21:58:51.010Z,27.57
2019-02-17T22:01:20.434Z,20.60
2019-02-17T22:03:49.496Z,20.50
2019-02-17T22:06:18.572Z,20.53
2019-02-17T22:08:48.002Z,19.87
2019-02-17T22:11:17.087Z,19.80
2019-02-17T22:13:46.392Z,21.60
2019-02-17T22:16:16.531Z,20.53
2019-02-17T22:18:45.603Z,21.77
2019-02-17T22:21:14.700Z,21.37
2019-02-17T22:23:43.785Z,21.33
2019-02-17T22:26:13.119Z,19.73
2019-02-17T22:28:42.507Z,19.63
2019-02-17T22:31:11.583Z,19.80
2019-02-17T22:33:40.647Z,21.10
2019-02-17T22:36:09.735Z,19.60
2019-02-17T22:38:38.799Z,21.07
2019-02-17T22:41:07.880Z,21.20
2019-02-17T22:43:36.938Z,20.07
2019-02-17T22:46:06.291Z,20.43
2019-02-17T22:48:35.360Z,21.47
2019-02-17T22:51:04.451Z,20.27
2019-02-17T22:53:43.099Z,20.20
2019-02-17T22:56:04.295Z,19.50
2019-02-17T22:58:33.364Z,20.53
2019-02-17T23:01:04.378Z,19.73
2019-02-17T23:03:34.739Z,21.47
2019-02-17T23:06:04.148Z,22.07
2019-02-17T23:08:33.484Z,20.03
2019-02-17T23:11:04.107Z,20.87
2019-02-17T23:13:33.734Z,19.93
2019-02-17T23:16:03.335Z,20.37
2019-02-17T23:18:32.918Z,18.30
2019-02-17T23:21:02.519Z,20.93
2019-02-17T23:23:31.664Z,20.10
2019-02-17T23:26:00.795Z,21.00
2019-02-17T23:28:30.078Z,20.33
2019-02-17T23:30:59.631Z,20.97
2019-02-17T23:33:28.753Z,20.33
2019-02-17T23:35:57.839Z,18.87
2019-02-17T23:38:26.979Z,21.83
2019-02-17T23:40:56.326Z,20.03
2019-02-17T23:43:25.403Z,20.00
2019-02-17T23:45:54.495Z,20.50
2019-02-17T23:48:23.558Z,19.93
2019-02-17T23:50:52.626Z,19.93
2019-02-17T23:53:21.711Z,19.40
2019-02-17T23:55:50.775Z,19.73
2019-02-17T23:58:19.859Z,21.60
